Time;durP1;ratioP1;P1;durP2;ratioP2;P2;SDS_P1;SDS_P2;PMS_P1;PMS_P2;Temp;Humidity;BMP_temperature;BMP_pressure;BME280_temperature;BME280_humidity;BME280_pressure;Samples;Min_cycle;Max_cycle;Signal;HPM_P1;HPM_P2
2022/08/19 00:01:41;;;;;;;22.00;16.77;;;21.50;99.90;;;;;;5091690;28;20043;-84
2022/08/19 00:04:09;;;;;;;18.48;15.15;;;21.50;99.90;;;;;;5090387;28;20043;-85
2022/08/19 00:06:36;;;;;;;20.20;17.23;;;21.60;99.90;;;;;;5091070;28;20467;-85
2022/08/19 00:09:04;;;;;;;21.20;16.98;;;21.50;99.90;;;;;;5090312;28;20550;-85
2022/08/19 00:11:29;;;;;;;21.35;17.05;;;21.50;99.90;;;;;;5090018;28;20020;-85
2022/08/19 00:13:56;;;;;;;24.17;17.15;;;21.60;99.90;;;;;;5091617;28;20646;-85
2022/08/19 00:16:22;;;;;;;23.52;18.00;;;21.60;99.90;;;;;;5090988;28;20024;-85
2022/08/19 00:18:48;;;;;;;21.63;17.40;;;21.70;99.90;;;;;;5090388;28;20036;-85
2022/08/19 00:21:14;;;;;;;23.77;18.25;;;21.70;99.90;;;;;;5090992;28;20036;-85
2022/08/19 00:23:40;;;;;;;21.38;17.38;;;21.70;99.90;;;;;;5091512;28;20034;-85
2022/08/19 00:26:07;;;;;;;24.63;16.85;;;21.70;99.90;;;;;;5089343;28;20032;-87
2022/08/19 00:28:35;;;;;;;29.52;17.10;;;21.80;99.90;;;;;;5090214;28;20127;-85
2022/08/19 00:31:02;;;;;;;27.40;18.00;;;21.80;99.90;;;;;;5089820;28;20031;-85
2022/08/19 00:33:32;;;;;;;23.98;17.42;;;21.80;99.90;;;;;;5092002;28;20390;-86
2022/08/19 00:35:58;;;;;;;22.48;17.90;;;21.80;99.90;;;;;;5090902;28;20389;-85
2022/08/19 00:38:24;;;;;;;22.67;17.58;;;21.70;99.90;;;;;;5091295;28;20028;-83
2022/08/19 00:40:50;;;;;;;24.48;19.08;;;21.60;99.90;;;;;;5091162;28;20028;-85
2022/08/19 00:43:19;;;;;;;25.27;18.00;;;21.60;99.90;;;;;;5089797;28;20485;-84
2022/08/19 00:45:45;;;;;;;25.63;18.55;;;21.60;99.90;;;;;;5089301;28;20031;-84
2022/08/19 00:48:11;;;;;;;23.10;18.42;;;21.60;99.90;;;;;;5090657;28;20032;-85
2022/08/19 00:50:40;;;;;;;23.95;19.42;;;21.60;99.90;;;;;;5091750;28;20028;-84
2022/08/19 00:53:06;;;;;;;23.48;18.38;;;21.50;99.90;;;;;;5099727;28;20028;-84
2022/08/19 00:55:32;;;;;;;25.88;19.10;;;21.50;99.90;;;;;;5098917;28;20031;-86
2022/08/19 00:58:06;;;;;;;27.88;20.35;;;21.50;99.90;;;;;;5093278;28;20032;-84
2022/08/19 01:00:33;;;;;;;23.25;18.90;;;21.50;99.90;;;;;;5091709;28;20028;-86
2022/08/19 01:02:59;;;;;;;25.30;19.63;;;21.40;99.90;;;;;;5090628;28;20351;-84
2022/08/19 01:05:28;;;;;;;26.00;19.92;;;21.40;99.90;;;;;;5090487;28;20036;-87
2022/08/19 01:07:55;;;;;;;23.42;18.63;;;21.40;99.90;;;;;;5089436;28;20039;-84
2022/08/19 01:10:25;;;;;;;27.33;20.27;;;21.40;99.90;;;;;;5091129;28;20047;-85
2022/08/19 01:12:52;;;;;;;26.20;20.58;;;21.40;99.90;;;;;;5090815;28;20024;-85
2022/08/19 01:15:22;;;;;;;28.45;21.23;;;21.40;99.90;;;;;;5088886;28;20027;-88
2022/08/19 01:17:49;;;;;;;29.45;20.77;;;21.30;99.90;;;;;;5089042;28;20047;-85
2022/08/19 01:20:19;;;;;;;29.35;21.17;;;21.30;99.90;;;;;;5090298;28;20036;-85
2022/08/19 01:22:51;;;;;;;28.48;20.70;;;21.30;99.90;;;;;;5090256;28;20044;-85
2022/08/19 01:25:18;;;;;;;;;;;21.30;99.90;;;;;;5089267;28;20084;-84
2022/08/19 01:27:47;;;;;;;25.30;19.98;;;21.30;99.90;;;;;;5090284;28;20014;-85
2022/08/19 01:30:20;;;;;;;31.30;22.02;;;21.30;99.90;;;;;;5089078;28;20032;-84
2022/08/19 01:32:45;;;;;;;;;;;21.30;99.90;;;;;;5090668;28;20051;-86
2022/08/19 01:35:13;;;;;;;31.70;22.38;;;21.20;99.90;;;;;;5097911;28;20357;-84
2022/08/19 01:37:51;;;;;;;26.30;21.70;;;21.20;99.90;;;;;;5109352;28;20027;-84
2022/08/19 01:40:20;;;;;;;32.92;22.63;;;21.20;99.90;;;;;;5109349;28;20028;-84
2022/08/19 01:42:47;;;;;;;33.20;22.80;;;21.30;99.90;;;;;;5109058;28;20027;-85
2022/08/19 01:45:13;;;;;;;32.75;23.33;;;21.20;99.90;;;;;;5109279;28;20046;-84
2022/08/19 01:47:39;;;;;;;30.63;23.00;;;21.20;99.90;;;;;;5110141;28;20028;-84
2022/08/19 01:50:07;;;;;;;30.48;22.85;;;21.20;99.90;;;;;;5110396;28;20031;-84
2022/08/19 01:52:35;;;;;;;32.92;22.33;;;21.20;99.90;;;;;;5109123;28;20046;-86
2022/08/19 01:55:01;;;;;;;30.10;22.92;;;21.20;99.90;;;;;;5109322;28;20031;-84
2022/08/19 01:57:27;;;;;;;32.88;23.30;;;21.20;99.90;;;;;;5109835;28;20443;-85
2022/08/19 01:59:53;;;;;;;34.15;24.58;;;21.20;99.90;;;;;;5112468;28;20027;-85
2022/08/19 02:02:19;;;;;;;33.47;23.98;;;21.20;99.90;;;;;;5112965;28;20027;-85
2022/08/19 02:04:45;;;;;;;35.35;24.38;;;21.20;99.90;;;;;;5113454;28;20024;-84
2022/08/19 02:07:11;;;;;;;34.97;23.77;;;21.20;99.90;;;;;;5112432;28;20457;-86
2022/08/19 02:09:37;;;;;;;33.83;24.23;;;21.10;99.90;;;;;;5114571;28;20119;-84
2022/08/19 02:12:04;;;;;;;32.85;24.40;;;21.10;99.90;;;;;;5112747;28;20024;-85
2022/08/19 02:14:30;;;;;;;31.73;23.77;;;21.20;99.90;;;;;;5114433;28;20020;-87
2022/08/19 02:16:56;;;;;;;30.65;23.35;;;21.20;99.90;;;;;;5113894;28;20410;-84
2022/08/19 02:19:22;;;;;;;31.42;23.75;;;21.20;99.90;;;;;;5114338;28;20031;-87
2022/08/19 02:21:47;;;;;;;30.58;23.25;;;21.20;99.90;;;;;;5113991;28;20028;-84
2022/08/19 02:24:13;;;;;;;31.75;23.33;;;21.20;99.90;;;;;;5114286;28;20027;-86
2022/08/19 02:26:38;;;;;;;33.35;24.20;;;21.20;99.90;;;;;;5112140;28;20045;-85
2022/08/19 02:29:04;;;;;;;27.45;22.23;;;21.10;99.90;;;;;;5114127;28;20106;-84
2022/08/19 02:31:29;;;;;;;27.85;22.63;;;21.20;99.90;;;;;;5113697;28;20385;-84
2022/08/19 02:33:56;;;;;;;30.33;22.45;;;21.20;99.90;;;;;;5114420;28;20032;-85
2022/08/19 02:36:23;;;;;;;30.17;22.67;;;21.20;99.90;;;;;;5113465;28;20518;-85
2022/08/19 02:38:48;;;;;;;32.47;22.55;;;21.20;99.90;;;;;;5112549;28;20039;-84
2022/08/19 02:41:17;;;;;;;28.77;21.63;;;21.30;99.90;;;;;;5113368;28;20039;-85
2022/08/19 02:43:43;;;;;;;31.17;23.02;;;21.30;99.90;;;;;;5112367;28;20063;-83
2022/08/19 02:46:24;;;;;;;32.40;21.75;;;21.30;99.90;;;;;;5113211;28;20052;-85
2022/08/19 02:48:51;;;;;;;27.70;21.63;;;21.30;99.90;;;;;;5112474;28;20092;-84
2022/08/19 02:51:32;;;;;;;26.88;21.02;;;21.40;99.90;;;;;;5112160;28;20421;-86
2022/08/19 02:53:59;;;;;;;26.83;20.13;;;21.40;99.90;;;;;;5112582;28;20031;-87
2022/08/19 02:56:26;;;;;;;27.45;20.25;;;21.40;99.90;;;;;;5111788;28;20038;-85
2022/08/19 02:58:52;;;;;;;25.75;20.38;;;21.40;99.90;;;;;;5113993;28;20027;-84
2022/08/19 03:01:24;;;;;;;27.15;19.73;;;21.40;99.90;;;;;;5113046;28;20084;-84
2022/08/19 03:03:51;;;;;;;22.80;18.98;;;21.30;99.90;;;;;;5113982;28;20111;-85
2022/08/19 03:06:17;;;;;;;26.70;20.92;;;21.30;99.90;;;;;;5111852;28;20035;-86
2022/08/19 03:08:44;;;;;;;22.30;18.27;;;21.30;99.90;;;;;;5113544;27;20031;-85
2022/08/19 03:11:15;;;;;;;22.08;17.13;;;21.30;99.90;;;;;;5112260;28;20042;-84
2022/08/19 03:13:42;;;;;;;22.92;17.27;;;21.30;99.90;;;;;;5114013;28;20055;-85
2022/08/19 03:16:08;;;;;;;20.75;16.35;;;21.30;99.90;;;;;;5111210;28;20501;-85
2022/08/19 03:18:34;;;;;;;19.05;16.13;;;21.30;99.90;;;;;;5111888;28;20032;-87
2022/08/19 03:21:00;;;;;;;19.10;15.77;;;21.40;99.90;;;;;;5113386;27;20097;-88
2022/08/19 03:23:25;;;;;;;18.58;14.50;;;21.40;99.90;;;;;;5113467;28;20034;-85
2022/08/19 03:25:53;;;;;;;14.95;12.98;;;21.40;99.90;;;;;;5112903;28;20118;-85
2022/08/19 03:28:19;;;;;;;16.17;14.48;;;21.50;99.90;;;;;;5113421;28;20027;-85
2022/08/19 03:31:00;;;;;;;14.88;12.90;;;21.60;99.90;;;;;;5111828;28;20031;-86
2022/08/19 03:33:26;;;;;;;16.65;13.57;;;21.60;99.90;;;;;;5112255;28;20047;-86
2022/08/19 03:36:11;;;;;;;17.75;12.43;;;21.60;99.90;;;;;;5112741;28;20122;-85
2022/08/19 03:38:40;;;;;;;15.55;13.30;;;21.70;99.90;;;;;;5111927;28;20091;-85
2022/08/19 03:41:10;;;;;;;16.02;14.43;;;21.70;99.90;;;;;;5111436;28;20493;-88
2022/08/19 03:43:36;;;;;;;17.23;14.68;;;21.70;99.90;;;;;;5111628;28;20057;-85
2022/08/19 03:46:05;;;;;;;15.63;13.85;;;21.80;99.90;;;;;;5110995;28;20038;-85
2022/08/19 03:48:31;;;;;;;15.27;13.15;;;21.80;99.90;;;;;;5112096;28;20091;-86
2022/08/19 03:50:58;;;;;;;17.17;13.80;;;21.80;99.90;;;;;;5112056;28;20036;-85
2022/08/19 03:53:25;;;;;;;18.30;14.35;;;21.80;99.90;;;;;;5112264;28;20023;-85
2022/08/19 03:55:51;;;;;;;16.80;13.63;;;21.70;99.90;;;;;;5115787;28;20028;-85
2022/08/19 03:58:17;;;;;;;17.45;14.05;;;21.80;99.90;;;;;;5116136;28;20031;-85
2022/08/19 04:00:43;;;;;;;14.70;12.95;;;21.70;99.90;;;;;;5114564;28;20023;-85
2022/08/19 04:03:08;;;;;;;16.30;12.75;;;21.70;99.90;;;;;;5115702;28;20023;-84
2022/08/19 04:05:34;;;;;;;14.15;12.73;;;21.70;99.90;;;;;;5116956;28;20083;-83
2022/08/19 04:08:00;;;;;;;17.00;13.45;;;21.60;99.90;;;;;;5113352;28;20206;-84
2022/08/19 04:10:27;;;;;;;15.00;13.13;;;21.60;99.90;;;;;;5117006;28;20016;-85
2022/08/19 04:12:52;;;;;;;15.23;13.32;;;21.70;99.90;;;;;;5122984;28;20048;-85
2022/08/19 04:15:18;;;;;;;14.38;12.85;;;21.60;99.90;;;;;;5122199;28;20051;-86
2022/08/19 04:17:44;;;;;;;14.85;12.48;;;21.60;99.90;;;;;;5112486;28;20027;-85
2022/08/19 04:20:09;;;;;;;15.65;13.95;;;21.70;99.90;;;;;;5111448;28;20024;-85
2022/08/19 04:22:35;;;;;;;14.23;12.70;;;21.60;99.90;;;;;;5112297;28;20494;-85
2022/08/19 04:25:01;;;;;;;16.05;13.55;;;21.60;99.90;;;;;;5110772;28;20164;-85
2022/08/19 04:27:26;;;;;;;18.55;14.30;;;21.60;99.90;;;;;;5111362;28;20116;-86
2022/08/19 04:29:54;;;;;;;21.77;14.68;;;21.50;99.90;;;;;;5112149;27;20157;-85
2022/08/19 04:32:19;;;;;;;19.13;15.70;;;21.50;99.90;;;;;;5110166;28;20550;-85
2022/08/19 04:34:44;;;;;;;18.83;15.48;;;21.50;99.90;;;;;;5110235;28;20118;-86
2022/08/19 04:37:11;;;;;;;20.45;15.65;;;21.50;99.90;;;;;;5111498;28;20028;-87
2022/08/19 04:42:39;;;;;;;23.73;19.98;;;21.50;99.90;;;;;;5111954;28;20039;-85
2022/08/19 04:45:10;;;;;;;24.15;19.08;;;21.40;99.90;;;;;;5110338;28;20023;-86
2022/08/19 04:47:38;;;;;;;21.85;19.45;;;21.30;99.90;;;;;;5110293;28;20216;-85
2022/08/19 04:50:05;;;;;;;31.45;21.33;;;21.20;99.90;;;;;;5111691;28;20140;-85
2022/08/19 04:52:31;;;;;;;24.40;19.85;;;21.20;99.90;;;;;;5111610;28;20027;-86
2022/08/19 04:54:57;;;;;;;26.73;20.30;;;21.30;99.90;;;;;;5111785;28;20035;-88
2022/08/19 04:57:23;;;;;;;27.00;19.85;;;21.30;99.90;;;;;;5109694;28;20482;-86
2022/08/19 04:59:53;;;;;;;27.05;20.23;;;21.30;99.90;;;;;;5110430;28;20034;-86
2022/08/19 05:02:18;;;;;;;27.42;21.67;;;21.40;99.90;;;;;;5109932;28;20591;-86
2022/08/19 05:04:44;;;;;;;22.88;20.38;;;21.40;99.90;;;;;;5111412;28;20032;-86
2022/08/19 05:07:09;;;;;;;25.95;20.80;;;21.40;99.90;;;;;;5109525;28;20508;-86
2022/08/19 05:09:35;;;;;;;26.83;21.00;;;21.50;99.90;;;;;;5111512;28;20027;-87
2022/08/19 05:12:01;;;;;;;25.15;21.20;;;21.50;99.90;;;;;;5109533;28;20035;-86
2022/08/19 05:14:27;;;;;;;27.33;21.77;;;21.50;99.90;;;;;;5111804;28;20028;-86
2022/08/19 05:16:52;;;;;;;29.35;23.30;;;21.50;99.90;;;;;;5109362;28;20077;-86
2022/08/19 05:24:46;;;;;;;27.10;22.55;;;21.50;99.90;;;;;;5111580;28;20663;-86
2022/08/19 05:27:11;;;;;;;30.08;25.13;;;21.40;99.90;;;;;;5111016;28;20027;-87
2022/08/19 05:29:37;;;;;;;32.47;25.20;;;21.40;99.90;;;;;;5111581;28;20028;-86
2022/08/19 05:32:10;;;;;;;33.95;24.48;;;21.40;99.90;;;;;;5111136;28;20032;-87
2022/08/19 05:34:37;;;;;;;31.00;23.75;;;21.40;99.90;;;;;;5115060;28;20031;-86
2022/08/19 05:37:04;;;;;;;32.55;25.58;;;21.40;99.90;;;;;;5116267;27;20385;-86
2022/08/19 05:39:33;;;;;;;34.28;26.23;;;21.40;99.90;;;;;;5118314;27;20023;-87
2022/08/19 05:42:03;;;;;;;31.35;26.55;;;21.50;99.90;;;;;;5117191;28;20393;-86
2022/08/19 05:44:31;;;;;;;35.15;26.63;;;21.50;99.90;;;;;;5117296;27;20088;-85
2022/08/19 05:47:01;;;;;;;35.75;26.80;;;21.40;99.90;;;;;;5116525;28;20039;-86
2022/08/19 05:49:28;;;;;;;40.65;28.67;;;21.40;99.90;;;;;;5118556;27;20039;-85
2022/08/19 05:51:55;;;;;;;39.38;28.00;;;21.40;99.90;;;;;;5117551;27;20028;-86
2022/08/19 05:54:22;;;;;;;34.30;27.23;;;21.40;99.90;;;;;;5121636;28;20058;-86
2022/08/19 05:56:49;;;;;;;34.15;27.60;;;21.40;99.90;;;;;;5124776;27;20019;-86
2022/08/19 05:59:16;;;;;;;34.35;26.88;;;21.50;99.90;;;;;;5125020;27;20046;-86
2022/08/19 06:01:44;;;;;;;35.22;28.38;;;21.50;99.90;;;;;;5124279;27;20031;-87
2022/08/19 06:04:10;;;;;;;41.10;27.77;;;21.60;99.90;;;;;;5125131;27;20024;-86
2022/08/19 06:06:36;;;;;;;32.92;27.15;;;21.50;99.90;;;;;;5124191;27;20062;-87
2022/08/19 06:09:06;;;;;;;35.15;28.17;;;21.50;99.90;;;;;;5124541;27;20032;-85
2022/08/19 06:11:44;;;;;;;35.90;27.23;;;21.50;99.90;;;;;;5125191;27;20427;-86
2022/08/19 06:14:16;;;;;;;36.20;27.30;;;21.50;99.90;;;;;;5121860;28;20473;-85
2022/08/19 06:16:42;;;;;;;;;;;21.50;99.90;;;;;;5128702;27;20498;-85
2022/08/19 06:19:12;;;;;;;34.55;26.17;;;21.50;99.90;;;;;;5127784;27;19904;-86
2022/08/19 06:21:40;;;;;;;38.05;28.15;;;21.50;99.90;;;;;;5131540;27;20040;-86
2022/08/19 06:24:09;;;;;;;36.38;27.92;;;21.50;99.90;;;;;;5127803;27;20024;-87
2022/08/19 06:26:36;;;;;;;35.17;26.55;;;21.50;99.90;;;;;;5126167;28;20389;-86
2022/08/19 06:29:05;;;;;;;38.05;27.05;;;21.40;99.90;;;;;;5123399;28;20035;-86
2022/08/19 06:31:33;;;;;;;33.95;25.73;;;21.30;99.90;;;;;;5126070;27;20055;-85
2022/08/19 06:34:02;;;;;;;33.80;26.48;;;21.30;99.90;;;;;;5120559;27;20031;-86
2022/08/19 06:36:35;;;;;;;36.10;26.65;;;21.30;99.90;;;;;;5115405;28;20485;-86
2022/08/19 06:39:03;;;;;;;34.20;26.40;;;21.30;99.90;;;;;;5115887;28;20033;-86
2022/08/19 06:41:30;;;;;;;34.08;25.67;;;21.40;99.90;;;;;;5115825;27;20081;-87
2022/08/19 06:43:56;;;;;;;35.60;27.65;;;21.30;99.90;;;;;;5118537;27;20028;-86
2022/08/19 06:46:22;;;;;;;36.75;28.90;;;21.30;99.90;;;;;;5113878;27;20054;-86
2022/08/19 06:48:48;;;;;;;36.88;27.35;;;21.20;99.90;;;;;;5115615;28;20102;-86
2022/08/19 06:51:18;;;;;;;42.42;28.10;;;21.20;99.90;;;;;;5114000;28;20028;-86
2022/08/19 06:53:46;;;;;;;41.58;28.05;;;21.20;99.90;;;;;;5114143;28;20095;-86
2022/08/19 06:56:12;;;;;;;43.45;28.50;;;21.20;99.90;;;;;;5114488;28;20091;-86
2022/08/19 06:58:38;;;;;;;41.00;28.95;;;21.20;99.90;;;;;;5115418;28;20023;-85
2022/08/19 07:01:04;;;;;;;42.55;28.42;;;21.20;99.90;;;;;;5115757;28;20096;-87
2022/08/19 07:03:32;;;;;;;39.28;28.73;;;21.20;99.90;;;;;;5113880;28;20027;-86
2022/08/19 07:06:03;;;;;;;43.88;30.92;;;21.20;99.90;;;;;;5113000;28;20078;-86
2022/08/19 07:08:28;;;;;;;40.67;28.33;;;21.30;99.90;;;;;;5115149;28;20035;-89
2022/08/19 07:10:54;;;;;;;38.25;28.67;;;21.30;99.90;;;;;;5113766;28;20393;-88
2022/08/19 07:13:21;;;;;;;47.42;30.60;;;21.20;99.90;;;;;;5114514;28;20107;-87
2022/08/19 07:15:47;;;;;;;41.78;29.48;;;21.20;99.90;;;;;;5113665;28;20036;-87
2022/08/19 07:18:12;;;;;;;42.15;28.40;;;21.10;99.90;;;;;;5114304;28;20031;-87
2022/08/19 07:20:39;;;;;;;41.22;28.60;;;21.20;99.90;;;;;;5114089;28;20020;-86
2022/08/19 07:23:05;;;;;;;39.35;28.13;;;21.10;99.90;;;;;;5113928;28;20019;-86
2022/08/19 07:25:30;;;;;;;40.00;27.67;;;21.10;99.90;;;;;;5114321;28;20085;-87
2022/08/19 07:27:56;;;;;;;41.00;28.50;;;21.20;99.90;;;;;;5113377;28;20409;-87
2022/08/19 07:30:22;;;;;;;39.92;27.60;;;21.20;99.90;;;;;;5122653;28;20031;-86
2022/08/19 07:32:50;;;;;;;38.53;27.60;;;21.20;99.90;;;;;;5125453;28;20027;-86
2022/08/19 07:35:19;;;;;;;41.55;27.85;;;21.20;99.90;;;;;;5114458;28;20100;-88
2022/08/19 07:37:44;;;;;;;38.33;27.25;;;21.10;99.90;;;;;;5113947;28;20559;-87
2022/08/19 07:40:11;;;;;;;36.65;27.02;;;21.10;99.90;;;;;;5112214;28;20031;-86
2022/08/19 07:42:37;;;;;;;34.08;26.30;;;21.10;99.90;;;;;;5111470;28;20557;-87
2022/08/19 07:45:03;;;;;;;34.28;25.40;;;21.10;99.90;;;;;;5111438;28;20057;-87
2022/08/19 07:47:29;;;;;;;38.55;26.42;;;21.20;99.90;;;;;;5110895;28;20027;-87
2022/08/19 07:49:55;;;;;;;36.03;26.98;;;21.20;99.90;;;;;;5111783;28;20392;-87
2022/08/19 07:52:22;;;;;;;36.90;26.60;;;21.20;99.90;;;;;;5112619;28;20023;-87
2022/08/19 07:54:49;;;;;;;34.85;26.08;;;21.10;99.90;;;;;;5113284;28;20073;-87
2022/08/19 07:57:15;;;;;;;39.30;25.83;;;21.00;99.90;;;;;;5111779;28;20473;-87
2022/08/19 07:59:41;;;;;;;33.47;26.40;;;21.00;99.90;;;;;;5111758;28;20119;-87
2022/08/19 08:02:07;;;;;;;37.25;26.13;;;21.10;99.90;;;;;;5112356;28;20035;-87
2022/08/19 08:10:03;;;;;;;37.55;25.05;;;21.30;99.90;;;;;;5113074;28;20084;-87
2022/08/19 08:12:33;;;;;;;31.83;22.73;;;21.30;99.90;;;;;;5111046;28;20039;-87
2022/08/19 08:15:04;;;;;;;37.95;23.58;;;21.30;99.90;;;;;;5112598;28;20165;-87
2022/08/19 08:17:30;;;;;;;32.47;24.55;;;21.40;99.90;;;;;;5110589;28;20393;-87
2022/08/19 08:19:56;;;;;;;34.63;23.35;;;21.40;99.90;;;;;;5112180;28;20099;-87
2022/08/19 08:25:16;;;;;;;31.08;22.98;;;21.50;99.90;;;;;;5112362;28;20042;-87
2022/08/19 08:27:44;;;;;;;35.45;23.23;;;21.60;99.90;;;;;;5110473;28;20493;-87
2022/08/19 08:30:11;;;;;;;28.90;23.17;;;21.60;99.90;;;;;;5110854;28;20116;-87
2022/08/19 08:32:38;;;;;;;37.55;23.88;;;21.70;99.90;;;;;;5110255;28;20036;-87
2022/08/19 08:35:06;;;;;;;32.47;23.58;;;21.60;99.90;;;;;;5110351;28;20024;-87
2022/08/19 08:37:31;;;;;;;34.40;24.20;;;21.50;99.90;;;;;;5111547;28;20054;-86
2022/08/19 08:39:57;;;;;;;31.85;23.42;;;21.50;99.90;;;;;;5112229;28;20473;-85
2022/08/19 08:42:36;;;;;;;29.83;23.55;;;21.50;99.90;;;;;;5110161;28;20028;-86
2022/08/19 08:45:15;;;;;;;31.98;24.38;;;21.60;99.90;;;;;;5112215;28;20105;-86
2022/08/19 08:47:44;;;;;;;27.40;22.55;;;21.60;99.90;;;;;;5110699;28;20050;-86
2022/08/19 08:50:23;;;;;;;30.23;22.80;;;21.50;99.90;;;;;;5112373;28;20011;-85
2022/08/19 08:52:52;;;;;;;32.95;23.25;;;21.50;99.90;;;;;;5112917;28;20378;-85
2022/08/19 08:55:24;;;;;;;36.38;23.73;;;21.50;99.90;;;;;;5120337;28;20050;-85
2022/08/19 08:57:54;;;;;;;29.23;21.97;;;21.50;99.90;;;;;;5123339;28;20674;-84
2022/08/19 09:00:29;;;;;;;29.63;22.17;;;21.40;99.90;;;;;;5124218;28;20534;-82
2022/08/19 09:02:57;;;;;;;29.80;22.15;;;21.40;99.90;;;;;;5121159;28;20027;-86
2022/08/19 09:05:26;;;;;;;28.25;20.98;;;21.50;99.90;;;;;;5114232;28;20728;-86
2022/08/19 09:08:08;;;;;;;25.05;21.95;;;21.50;99.90;;;;;;5121123;28;20024;-85
2022/08/19 09:10:48;;;;;;;29.60;21.90;;;21.50;99.90;;;;;;5113649;28;20026;-86
2022/08/19 09:13:30;;;;;;;26.52;20.27;;;21.50;99.90;;;;;;5117360;28;20043;-86
2022/08/19 09:16:01;;;;;;;25.08;19.98;;;21.60;99.90;;;;;;5115484;28;20106;-86
2022/08/19 09:18:43;;;;;;;30.25;20.00;;;21.70;99.90;;;;;;5112484;28;20027;-85
2022/08/19 09:21:09;;;;;;;26.98;20.08;;;21.70;99.90;;;;;;5116240;28;20024;-86
2022/08/19 09:23:36;;;;;;;25.83;19.95;;;21.80;99.90;;;;;;5119367;28;20050;-86
2022/08/19 09:26:08;;;;;;;24.08;20.33;;;21.90;99.90;;;;;;5119056;28;20464;-86
2022/08/19 09:28:34;;;;;;;25.83;19.88;;;21.90;99.90;;;;;;5119712;28;20093;-86
2022/08/19 09:31:00;;;;;;;28.25;19.42;;;21.80;99.90;;;;;;5119161;28;20031;-87
2022/08/19 09:33:25;;;;;;;31.80;20.27;;;21.80;99.90;;;;;;5118447;28;20019;-88
2022/08/19 09:36:09;;;;;;;27.77;20.33;;;21.80;99.90;;;;;;5121194;28;20047;-87
2022/08/19 09:38:35;;;;;;;24.60;19.40;;;21.90;99.90;;;;;;5114893;28;20153;-86
2022/08/19 09:41:07;;;;;;;33.58;20.95;;;21.90;99.90;;;;;;5116015;28;20028;-87
2022/08/19 09:43:36;;;;;;;28.83;21.35;;;21.80;99.90;;;;;;5121683;28;20082;-86
2022/08/19 09:46:05;;;;;;;24.77;21.25;;;21.70;99.90;;;;;;5124082;28;20026;-86
2022/08/19 09:48:31;;;;;;;27.42;21.92;;;21.70;99.90;;;;;;5117006;28;20023;-86
2022/08/19 09:51:03;;;;;;;28.35;21.17;;;21.70;99.90;;;;;;5122666;28;20053;-87
2022/08/19 09:53:28;;;;;;;27.40;21.58;;;21.70;99.90;;;;;;5121446;28;20031;-85
2022/08/19 09:55:55;;;;;;;28.10;20.95;;;21.80;99.90;;;;;;5123443;28;20012;-87
2022/08/19 09:58:20;;;;;;;33.05;21.35;;;21.90;99.90;;;;;;5121886;28;20044;-86
2022/08/19 10:00:46;;;;;;;26.40;19.67;;;21.90;99.90;;;;;;5120729;28;20066;-86
2022/08/19 10:03:11;;;;;;;26.90;20.92;;;21.90;99.90;;;;;;5120974;28;20378;-86
2022/08/19 10:05:49;;;;;;;29.40;18.85;;;22.00;99.90;;;;;;5118912;28;20032;-87
2022/08/19 10:08:17;;;;;;;31.08;19.20;;;22.00;99.90;;;;;;5113579;28;20485;-85
2022/08/19 10:10:44;;;;;;;28.20;19.40;;;21.80;99.90;;;;;;5121640;28;20088;-87
2022/08/19 10:13:12;;;;;;;24.48;17.88;;;21.80;99.90;;;;;;5116331;28;20515;-85
2022/08/19 10:15:41;;;;;;;21.38;17.25;;;21.90;99.90;;;;;;5113306;28;20057;-86
2022/08/19 10:18:07;;;;;;;24.30;17.77;;;22.00;99.90;;;;;;5115348;28;20288;-87
2022/08/19 10:20:35;;;;;;;21.95;16.83;;;22.00;99.90;;;;;;5113735;28;20039;-86
2022/08/19 10:23:03;;;;;;;19.58;15.80;;;22.10;99.90;;;;;;5117052;28;20020;-87
2022/08/19 10:25:29;;;;;;;19.55;15.35;;;22.10;99.90;;;;;;5114530;28;20020;-88
2022/08/19 10:27:54;;;;;;;18.20;14.90;;;22.20;99.90;;;;;;5116835;28;20087;-88
2022/08/19 10:30:20;;;;;;;21.25;15.85;;;22.30;99.90;;;;;;5115979;28;20536;-88
2022/08/19 10:32:47;;;;;;;17.00;14.57;;;22.30;99.90;;;;;;5117052;28;20084;-88
2022/08/19 10:35:13;;;;;;;19.15;13.80;;;22.40;99.90;;;;;;5116388;28;20031;-87
2022/08/19 10:37:39;;;;;;;32.05;15.43;;;22.30;99.90;;;;;;5117573;28;20427;-87
2022/08/19 10:40:07;;;;;;;16.98;14.25;;;22.30;99.90;;;;;;5116559;28;20027;-88
2022/08/19 10:42:33;;;;;;;18.67;13.77;;;22.40;99.90;;;;;;5116880;28;20031;-88
2022/08/19 10:44:58;;;;;;;16.85;13.45;;;22.50;99.90;;;;;;5116616;28;20020;-87
2022/08/19 10:47:24;;;;;;;20.80;13.13;;;22.60;99.90;;;;;;5124009;28;20040;-88
2022/08/19 10:52:34;;;;;;;18.08;12.63;;;22.70;99.90;;;;;;5125804;28;20069;-86
2022/08/19 10:57:45;;;;;;;18.85;13.60;;;22.60;99.90;;;;;;5116333;28;20438;-84
2022/08/19 11:00:11;;;;;;;17.35;12.77;;;22.40;99.90;;;;;;5117402;28;20059;-86
2022/08/19 11:02:38;;;;;;;16.02;12.85;;;22.40;99.90;;;;;;5117343;28;20023;-86
2022/08/19 11:05:04;;;;;;;15.20;11.15;;;22.20;99.90;;;;;;5115725;28;20024;-86
2022/08/19 11:07:29;;;;;;;14.95;11.48;;;22.30;99.90;;;;;;5113122;28;20031;-86
2022/08/19 11:09:54;;;;;;;13.93;10.00;;;22.30;99.90;;;;;;5113498;28;20114;-87
2022/08/19 11:12:21;;;;;;;15.02;11.65;;;22.30;99.90;;;;;;5113728;28;20032;-88
2022/08/19 11:14:47;;;;;;;14.07;11.68;;;22.30;99.90;;;;;;5114882;28;20228;-87
2022/08/19 11:17:13;;;;;;;13.27;10.18;;;22.20;99.90;;;;;;5112309;28;20016;-87
2022/08/19 11:19:39;;;;;;;15.98;10.63;;;22.20;99.90;;;;;;5113179;28;20064;-87
2022/08/19 11:22:09;;;;;;;17.60;11.65;;;22.20;99.90;;;;;;5114267;28;20065;-86
2022/08/19 11:24:35;;;;;;;16.65;11.60;;;22.20;99.90;;;;;;5113578;28;20024;-87
2022/08/19 11:27:07;;;;;;;19.05;12.02;;;22.20;99.90;;;;;;5113862;28;20022;-87
2022/08/19 11:29:34;;;;;;;22.55;11.43;;;22.10;99.90;;;;;;5114638;28;20024;-87
2022/08/19 11:32:03;;;;;;;20.88;10.48;;;22.10;99.90;;;;;;5115361;28;20028;-87
2022/08/19 11:34:29;;;;;;;18.90;11.02;;;22.20;99.90;;;;;;5117345;28;20050;-86
2022/08/19 11:36:58;;;;;;;14.20;10.70;;;22.20;99.90;;;;;;5115768;28;20023;-86
2022/08/19 11:39:25;;;;;;;12.70;9.60;;;22.20;99.90;;;;;;5113562;28;20020;-88
2022/08/19 11:41:50;;;;;;;14.07;9.82;;;22.30;99.90;;;;;;5113051;28;20027;-86
2022/08/19 11:44:16;;;;;;;14.63;9.20;;;22.30;99.90;;;;;;5113448;28;20415;-85
2022/08/19 11:46:45;;;;;;;14.13;9.55;;;22.40;99.90;;;;;;5113215;28;20031;-85
2022/08/19 11:49:11;;;;;;;11.23;8.77;;;22.50;99.90;;;;;;5112065;28;20028;-85
2022/08/19 11:51:37;;;;;;;15.20;8.63;;;22.60;99.90;;;;;;5113054;28;20130;-86
2022/08/19 11:54:05;;;;;;;13.65;7.95;;;22.80;99.90;;;;;;5113022;28;20513;-86
2022/08/19 11:56:31;;;;;;;10.52;8.05;;;22.90;99.90;;;;;;5112712;27;20129;-86
2022/08/19 11:58:56;;;;;;;10.48;8.48;;;23.00;99.90;;;;;;5112981;28;20032;-87
2022/08/19 12:01:24;;;;;;;9.40;7.70;;;23.20;99.90;;;;;;5111470;28;20114;-86
2022/08/19 12:03:51;;;;;;;11.10;7.30;;;23.30;99.80;;;;;;5111905;28;20024;-87
2022/08/19 12:06:38;;;;;;;10.63;8.15;;;23.40;99.90;;;;;;5111142;28;20065;-86
2022/08/19 12:09:07;;;;;;;11.68;7.93;;;23.50;99.70;;;;;;5111499;28;20084;-87
2022/08/19 12:11:33;;;;;;;12.80;8.52;;;23.40;99.50;;;;;;5112743;28;20474;-87
2022/08/19 12:13:58;;;;;;;15.52;10.02;;;23.40;99.70;;;;;;5111951;28;20024;-87
2022/08/19 12:16:27;;;;;;;11.10;8.95;;;23.40;99.50;;;;;;5112170;28;20035;-88
2022/08/19 12:18:53;;;;;;;12.32;8.77;;;23.30;99.60;;;;;;5113225;28;20019;-87
2022/08/19 12:21:21;;;;;;;13.95;8.48;;;23.40;99.40;;;;;;5112376;28;20500;-88
2022/08/19 12:23:48;;;;;;;10.35;8.13;;;23.50;99.10;;;;;;5111300;28;20036;-88
2022/08/19 12:26:14;;;;;;;8.95;7.55;;;23.50;99.70;;;;;;5110625;28;20370;-87
2022/08/19 12:28:41;;;;;;;14.85;8.57;;;23.70;99.20;;;;;;5111849;28;20053;-87
2022/08/19 12:31:06;;;;;;;14.07;10.15;;;23.90;98.70;;;;;;5112720;28;20023;-88
2022/08/19 12:33:32;;;;;;;12.90;8.90;;;24.00;98.50;;;;;;5111672;28;20115;-87
2022/08/19 12:36:03;;;;;;;9.85;8.15;;;24.10;98.20;;;;;;5112178;28;20023;-88
2022/08/19 12:38:29;;;;;;;9.82;8.35;;;24.10;98.40;;;;;;5112944;28;20063;-89
2022/08/19 12:40:55;;;;;;;11.15;8.43;;;24.20;98.10;;;;;;5111917;28;20367;-88
2022/08/19 12:43:21;;;;;;;10.10;8.70;;;24.30;98.00;;;;;;5110918;28;20035;-89
2022/08/19 12:45:46;;;;;;;12.00;8.75;;;24.20;98.90;;;;;;5112762;28;20437;-87
2022/08/19 12:48:12;;;;;;;12.18;8.40;;;24.40;98.40;;;;;;5112980;28;20118;-88
2022/08/19 12:50:42;;;;;;;11.30;8.40;;;24.60;98.60;;;;;;5111795;28;20026;-90
2022/08/19 12:53:08;;;;;;;12.68;10.05;;;24.80;97.60;;;;;;5111268;28;20026;-87